sensor_id;sensor_type;location;lat;lon;timestamp;temperature;humidity
64689;DHT22;62504;46.070;14.492;2022-12-24T00:02:00;10.30;99.90
64689;DHT22;62504;46.070;14.492;2022-12-24T00:04:26;10.40;99.90
64689;DHT22;62504;46.070;14.492;2022-12-24T00:06:52;10.30;99.90
64689;DHT22;62504;46.070;14.492;2022-12-24T00:09:18;10.30;99.90
64689;DHT22;62504;46.070;14.492;2022-12-24T00:11:43;10.20;99.90
64689;DHT22;62504;46.070;14.492;2022-12-24T00:14:09;10.30;99.90
64689;DHT22;62504;46.070;14.492;2022-12-24T00:16:34;10.20;99.90
64689;DHT22;62504;46.070;14.492;2022-12-24T00:19:00;10.20;99.90
64689;DHT22;62504;46.070;14.492;2022-12-24T00:21:25;10.30;99.90
64689;DHT22;62504;46.070;14.492;2022-12-24T00:23:51;10.30;99.90
64689;DHT22;62504;46.070;14.492;2022-12-24T00:26:17;10.20;99.90
64689;DHT22;62504;46.070;14.492;2022-12-24T00:28:42;10.20;99.90
64689;DHT22;62504;46.070;14.492;2022-12-24T00:31:10;10.20;99.90
64689;DHT22;62504;46.070;14.492;2022-12-24T00:33:36;10.30;99.90
64689;DHT22;62504;46.070;14.492;2022-12-24T00:36:02;10.20;99.90
64689;DHT22;62504;46.070;14.492;2022-12-24T00:38:28;10.30;99.90
64689;DHT22;62504;46.070;14.492;2022-12-24T00:40:58;10.30;99.90
64689;DHT22;62504;46.070;14.492;2022-12-24T00:43:25;10.20;99.90
64689;DHT22;62504;46.070;14.492;2022-12-24T00:45:50;10.10;99.90
64689;DHT22;62504;46.070;14.492;2022-12-24T00:48:16;10.20;99.90
64689;DHT22;62504;46.070;14.492;2022-12-24T00:50:41;10.20;99.90
64689;DHT22;62504;46.070;14.492;2022-12-24T00:53:07;10.10;99.90
64689;DHT22;62504;46.070;14.492;2022-12-24T00:55:32;10.10;99.90
64689;DHT22;62504;46.070;14.492;2022-12-24T00:57:58;10.10;99.90
64689;DHT22;62504;46.070;14.492;2022-12-24T01:00:24;10.10;99.90
64689;DHT22;62504;46.070;14.492;2022-12-24T01:02:49;10.10;99.90
64689;DHT22;62504;46.070;14.492;2022-12-24T01:05:15;10.10;99.90
64689;DHT22;62504;46.070;14.492;2022-12-24T01:07:45;10.10;99.90
64689;DHT22;62504;46.070;14.492;2022-12-24T01:10:13;10.00;99.90
64689;DHT22;62504;46.070;14.492;2022-12-24T01:12:39;10.00;99.90
64689;DHT22;62504;46.070;14.492;2022-12-24T01:15:05;10.10;99.90
64689;DHT22;62504;46.070;14.492;2022-12-24T01:17:32;10.10;99.90
64689;DHT22;62504;46.070;14.492;2022-12-24T01:19:58;10.00;99.90
64689;DHT22;62504;46.070;14.492;2022-12-24T01:22:24;10.00;99.90
64689;DHT22;62504;46.070;14.492;2022-12-24T01:24:50;10.10;99.90
64689;DHT22;62504;46.070;14.492;2022-12-24T01:27:15;10.10;99.90
64689;DHT22;62504;46.070;14.492;2022-12-24T01:29:41;10.10;99.90
64689;DHT22;62504;46.070;14.492;2022-12-24T01:32:07;10.10;99.90
64689;DHT22;62504;46.070;14.492;2022-12-24T01:34:32;10.10;99.90
64689;DHT22;62504;46.070;14.492;2022-12-24T01:36:58;10.00;99.90
64689;DHT22;62504;46.070;14.492;2022-12-24T01:39:24;10.10;99.90
64689;DHT22;62504;46.070;14.492;2022-12-24T01:41:49;9.90;99.90
64689;DHT22;62504;46.070;14.492;2022-12-24T01:44:39;9.90;99.90
64689;DHT22;62504;46.070;14.492;2022-12-24T01:49:45;10.00;99.90
64689;DHT22;62504;46.070;14.492;2022-12-24T01:52:20;10.10;99.90
64689;DHT22;62504;46.070;14.492;2022-12-24T01:55:08;10.10;99.90
64689;DHT22;62504;46.070;14.492;2022-12-24T01:57:40;10.10;99.90
64689;DHT22;62504;46.070;14.492;2022-12-24T02:00:10;10.10;99.90
64689;DHT22;62504;46.070;14.492;2022-12-24T02:02:37;10.00;99.90
64689;DHT22;62504;46.070;14.492;2022-12-24T02:05:11;10.00;99.90
64689;DHT22;62504;46.070;14.492;2022-12-24T02:07:40;10.00;99.90
64689;DHT22;62504;46.070;14.492;2022-12-24T02:10:10;9.90;99.90
64689;DHT22;62504;46.070;14.492;2022-12-24T02:12:37;9.90;99.90
64689;DHT22;62504;46.070;14.492;2022-12-24T02:15:05;9.80;99.90
64689;DHT22;62504;46.070;14.492;2022-12-24T02:18:00;9.80;99.90
64689;DHT22;62504;46.070;14.492;2022-12-24T02:23:46;9.60;99.90
64689;DHT22;62504;46.070;14.492;2022-12-24T02:26:50;9.70;99.90
64689;DHT22;62504;46.070;14.492;2022-12-24T02:29:43;9.70;99.90
64689;DHT22;62504;46.070;14.492;2022-12-24T02:32:45;9.60;99.90
64689;DHT22;62504;46.070;14.492;2022-12-24T02:37:55;9.60;99.90
64689;DHT22;62504;46.070;14.492;2022-12-24T02:40:28;9.70;99.90
64689;DHT22;62504;46.070;14.492;2022-12-24T02:43:02;9.60;99.90
64689;DHT22;62504;46.070;14.492;2022-12-24T02:45:31;9.60;99.90
64689;DHT22;62504;46.070;14.492;2022-12-24T02:47:58;9.60;99.90
64689;DHT22;62504;46.070;14.492;2022-12-24T02:50:25;9.40;99.90
64689;DHT22;62504;46.070;14.492;2022-12-24T02:52:51;9.50;99.90
64689;DHT22;62504;46.070;14.492;2022-12-24T03:04:16;9.40;99.90
64689;DHT22;62504;46.070;14.492;2022-12-24T03:07:37;9.40;99.90
64689;DHT22;62504;46.070;14.492;2022-12-24T03:10:45;9.20;99.90
64689;DHT22;62504;46.070;14.492;2022-12-24T03:13:15;9.20;99.90
64689;DHT22;62504;46.070;14.492;2022-12-24T03:15:42;9.30;99.90
64689;DHT22;62504;46.070;14.492;2022-12-24T03:18:11;9.30;99.90
64689;DHT22;62504;46.070;14.492;2022-12-24T03:20:45;9.20;99.90
64689;DHT22;62504;46.070;14.492;2022-12-24T03:23:12;9.40;99.90
64689;DHT22;62504;46.070;14.492;2022-12-24T03:25:40;9.30;99.90
64689;DHT22;62504;46.070;14.492;2022-12-24T03:28:07;9.30;99.90
64689;DHT22;62504;46.070;14.492;2022-12-24T03:30:34;9.30;99.90
64689;DHT22;62504;46.070;14.492;2022-12-24T03:33:00;9.40;99.90
64689;DHT22;62504;46.070;14.492;2022-12-24T03:35:26;9.40;99.90
64689;DHT22;62504;46.070;14.492;2022-12-24T03:37:51;9.40;99.90
64689;DHT22;62504;46.070;14.492;2022-12-24T03:40:17;9.40;99.90
64689;DHT22;62504;46.070;14.492;2022-12-24T03:42:43;9.20;99.90
64689;DHT22;62504;46.070;14.492;2022-12-24T03:45:09;9.10;99.90
64689;DHT22;62504;46.070;14.492;2022-12-24T03:47:34;9.30;99.90
64689;DHT22;62504;46.070;14.492;2022-12-24T03:50:00;9.30;99.90
64689;DHT22;62504;46.070;14.492;2022-12-24T03:52:26;9.30;99.90
64689;DHT22;62504;46.070;14.492;2022-12-24T03:54:51;9.30;99.90
64689;DHT22;62504;46.070;14.492;2022-12-24T03:57:17;9.30;99.90
64689;DHT22;62504;46.070;14.492;2022-12-24T03:59:42;9.30;99.90
64689;DHT22;62504;46.070;14.492;2022-12-24T04:02:08;9.30;99.90
64689;DHT22;62504;46.070;14.492;2022-12-24T04:04:34;9.30;99.90
64689;DHT22;62504;46.070;14.492;2022-12-24T04:07:02;9.40;99.90
64689;DHT22;62504;46.070;14.492;2022-12-24T04:09:28;9.50;99.90
64689;DHT22;62504;46.070;14.492;2022-12-24T04:11:54;9.50;99.90
64689;DHT22;62504;46.070;14.492;2022-12-24T04:14:19;9.50;99.90
64689;DHT22;62504;46.070;14.492;2022-12-24T04:16:45;9.50;99.90
64689;DHT22;62504;46.070;14.492;2022-12-24T04:19:11;9.40;99.90
64689;DHT22;62504;46.070;14.492;2022-12-24T04:21:36;9.40;99.90
64689;DHT22;62504;46.070;14.492;2022-12-24T04:24:02;9.40;99.90
64689;DHT22;62504;46.070;14.492;2022-12-24T04:26:27;9.40;99.90
64689;DHT22;62504;46.070;14.492;2022-12-24T04:28:53;9.40;99.90
64689;DHT22;62504;46.070;14.492;2022-12-24T04:31:19;9.30;99.90
64689;DHT22;62504;46.070;14.492;2022-12-24T04:33:45;9.30;99.90
64689;DHT22;62504;46.070;14.492;2022-12-24T04:36:16;9.30;99.90
64689;DHT22;62504;46.070;14.492;2022-12-24T04:38:42;9.10;99.90
64689;DHT22;62504;46.070;14.492;2022-12-24T04:41:11;9.10;99.90
64689;DHT22;62504;46.070;14.492;2022-12-24T04:43:37;9.00;99.90
64689;DHT22;62504;46.070;14.492;2022-12-24T04:46:08;9.00;99.90
64689;DHT22;62504;46.070;14.492;2022-12-24T04:48:34;9.00;99.90
64689;DHT22;62504;46.070;14.492;2022-12-24T04:51:04;9.00;99.90
64689;DHT22;62504;46.070;14.492;2022-12-24T04:53:31;9.10;99.90
64689;DHT22;62504;46.070;14.492;2022-12-24T04:55:57;9.20;99.90
64689;DHT22;62504;46.070;14.492;2022-12-24T04:58:23;9.20;99.90
64689;DHT22;62504;46.070;14.492;2022-12-24T05:00:49;9.10;99.90
64689;DHT22;62504;46.070;14.492;2022-12-24T05:03:14;8.90;99.90
64689;DHT22;62504;46.070;14.492;2022-12-24T05:05:40;9.00;99.90
64689;DHT22;62504;46.070;14.492;2022-12-24T05:08:05;9.00;99.90
64689;DHT22;62504;46.070;14.492;2022-12-24T05:10:31;9.10;99.90
64689;DHT22;62504;46.070;14.492;2022-12-24T05:12:57;9.00;99.90
64689;DHT22;62504;46.070;14.492;2022-12-24T05:15:23;9.00;99.90
64689;DHT22;62504;46.070;14.492;2022-12-24T05:17:48;9.10;99.90
64689;DHT22;62504;46.070;14.492;2022-12-24T05:20:14;9.10;99.90
64689;DHT22;62504;46.070;14.492;2022-12-24T05:22:40;9.10;99.90
64689;DHT22;62504;46.070;14.492;2022-12-24T05:25:26;9.10;99.90
64689;DHT22;62504;46.070;14.492;2022-12-24T05:28:11;9.10;99.90
64689;DHT22;62504;46.070;14.492;2022-12-24T05:30:36;9.00;99.90
64689;DHT22;62504;46.070;14.492;2022-12-24T05:33:02;9.00;99.90
64689;DHT22;62504;46.070;14.492;2022-12-24T05:35:27;9.00;99.90
64689;DHT22;62504;46.070;14.492;2022-12-24T05:37:56;9.00;99.90
64689;DHT22;62504;46.070;14.492;2022-12-24T05:40:22;9.00;99.90
64689;DHT22;62504;46.070;14.492;2022-12-24T05:42:49;9.00;99.90
64689;DHT22;62504;46.070;14.492;2022-12-24T05:45:14;9.00;99.90
64689;DHT22;62504;46.070;14.492;2022-12-24T05:47:40;9.00;99.90
64689;DHT22;62504;46.070;14.492;2022-12-24T05:50:06;9.00;99.90
64689;DHT22;62504;46.070;14.492;2022-12-24T05:52:32;9.00;99.90
64689;DHT22;62504;46.070;14.492;2022-12-24T05:54:57;9.00;99.90
64689;DHT22;62504;46.070;14.492;2022-12-24T05:57:23;9.00;99.90
64689;DHT22;62504;46.070;14.492;2022-12-24T05:59:49;9.00;99.90
64689;DHT22;62504;46.070;14.492;2022-12-24T06:02:15;9.10;99.90
64689;DHT22;62504;46.070;14.492;2022-12-24T06:04:40;9.20;99.90
64689;DHT22;62504;46.070;14.492;2022-12-24T06:07:06;9.20;99.90
64689;DHT22;62504;46.070;14.492;2022-12-24T06:09:32;9.10;99.90
64689;DHT22;62504;46.070;14.492;2022-12-24T06:11:57;9.10;99.90
64689;DHT22;62504;46.070;14.492;2022-12-24T06:14:23;9.10;99.90
64689;DHT22;62504;46.070;14.492;2022-12-24T06:16:48;9.10;99.90
64689;DHT22;62504;46.070;14.492;2022-12-24T06:19:14;9.10;99.90
64689;DHT22;62504;46.070;14.492;2022-12-24T06:21:40;9.10;99.90
64689;DHT22;62504;46.070;14.492;2022-12-24T06:24:05;9.10;99.90
64689;DHT22;62504;46.070;14.492;2022-12-24T06:26:31;9.00;99.90
64689;DHT22;62504;46.070;14.492;2022-12-24T06:28:57;9.00;99.90
64689;DHT22;62504;46.070;14.492;2022-12-24T06:31:22;9.00;99.90
64689;DHT22;62504;46.070;14.492;2022-12-24T06:33:49;9.00;99.90
64689;DHT22;62504;46.070;14.492;2022-12-24T06:36:17;9.00;99.90
64689;DHT22;62504;46.070;14.492;2022-12-24T06:38:47;9.00;99.90
64689;DHT22;62504;46.070;14.492;2022-12-24T06:41:13;9.10;99.90
64689;DHT22;62504;46.070;14.492;2022-12-24T06:43:43;9.00;99.90
64689;DHT22;62504;46.070;14.492;2022-12-24T06:46:09;8.90;99.90
64689;DHT22;62504;46.070;14.492;2022-12-24T06:48:34;9.00;99.90
64689;DHT22;62504;46.070;14.492;2022-12-24T06:51:03;8.90;99.90
64689;DHT22;62504;46.070;14.492;2022-12-24T06:53:29;9.00;99.90
64689;DHT22;62504;46.070;14.492;2022-12-24T06:56:03;8.80;99.90
64689;DHT22;62504;46.070;14.492;2022-12-24T06:58:28;8.80;99.90
64689;DHT22;62504;46.070;14.492;2022-12-24T07:00:54;8.80;99.90
64689;DHT22;62504;46.070;14.492;2022-12-24T07:03:20;8.80;99.90
64689;DHT22;62504;46.070;14.492;2022-12-24T07:05:45;8.80;99.90
64689;DHT22;62504;46.070;14.492;2022-12-24T07:08:11;8.80;99.90
64689;DHT22;62504;46.070;14.492;2022-12-24T07:10:36;8.80;99.90
64689;DHT22;62504;46.070;14.492;2022-12-24T07:13:02;8.80;99.90
64689;DHT22;62504;46.070;14.492;2022-12-24T07:15:27;8.90;99.90
64689;DHT22;62504;46.070;14.492;2022-12-24T07:17:53;8.90;99.90
64689;DHT22;62504;46.070;14.492;2022-12-24T07:20:19;8.90;99.90
64689;DHT22;62504;46.070;14.492;2022-12-24T07:22:44;8.90;99.90
64689;DHT22;62504;46.070;14.492;2022-12-24T07:25:10;8.90;99.90
64689;DHT22;62504;46.070;14.492;2022-12-24T07:27:36;9.00;99.90
64689;DHT22;62504;46.070;14.492;2022-12-24T07:30:03;8.90;99.90
64689;DHT22;62504;46.070;14.492;2022-12-24T07:32:28;9.00;99.90
64689;DHT22;62504;46.070;14.492;2022-12-24T07:34:54;8.80;99.90
64689;DHT22;62504;46.070;14.492;2022-12-24T07:37:19;8.80;99.90
64689;DHT22;62504;46.070;14.492;2022-12-24T07:39:45;8.70;99.90
64689;DHT22;62504;46.070;14.492;2022-12-24T07:42:11;8.90;99.90
64689;DHT22;62504;46.070;14.492;2022-12-24T07:44:36;8.90;99.90
64689;DHT22;62504;46.070;14.492;2022-12-24T07:47:05;8.80;99.90
64689;DHT22;62504;46.070;14.492;2022-12-24T07:49:30;8.80;99.90
64689;DHT22;62504;46.070;14.492;2022-12-24T07:51:56;8.80;99.90
64689;DHT22;62504;46.070;14.492;2022-12-24T07:54:22;8.70;99.90
64689;DHT22;62504;46.070;14.492;2022-12-24T07:56:47;8.70;99.90
64689;DHT22;62504;46.070;14.492;2022-12-24T07:59:13;8.60;99.90
64689;DHT22;62504;46.070;14.492;2022-12-24T08:01:39;8.50;99.90
64689;DHT22;62504;46.070;14.492;2022-12-24T08:04:05;8.70;99.90
64689;DHT22;62504;46.070;14.492;2022-12-24T08:06:30;8.80;99.90
64689;DHT22;62504;46.070;14.492;2022-12-24T08:08:56;8.90;99.90
64689;DHT22;62504;46.070;14.492;2022-12-24T08:11:22;8.60;99.90
64689;DHT22;62504;46.070;14.492;2022-12-24T08:13:47;8.60;99.90
64689;DHT22;62504;46.070;14.492;2022-12-24T08:16:13;8.70;99.90
64689;DHT22;62504;46.070;14.492;2022-12-24T08:18:39;8.90;99.90
64689;DHT22;62504;46.070;14.492;2022-12-24T08:21:08;9.00;99.90
64689;DHT22;62504;46.070;14.492;2022-12-24T08:23:35;9.10;99.90
64689;DHT22;62504;46.070;14.492;2022-12-24T08:26:01;9.10;99.90
64689;DHT22;62504;46.070;14.492;2022-12-24T08:28:27;9.20;99.90
64689;DHT22;62504;46.070;14.492;2022-12-24T08:30:53;9.20;99.90
64689;DHT22;62504;46.070;14.492;2022-12-24T08:33:19;9.20;99.90
64689;DHT22;62504;46.070;14.492;2022-12-24T08:35:49;9.20;99.90
64689;DHT22;62504;46.070;14.492;2022-12-24T08:38:15;9.20;99.90
64689;DHT22;62504;46.070;14.492;2022-12-24T08:40:42;9.10;99.90
64689;DHT22;62504;46.070;14.492;2022-12-24T08:43:07;9.10;99.90
64689;DHT22;62504;46.070;14.492;2022-12-24T08:45:33;9.10;99.90
64689;DHT22;62504;46.070;14.492;2022-12-24T08:47:59;9.20;99.90
64689;DHT22;62504;46.070;14.492;2022-12-24T08:50:25;9.20;99.90
64689;DHT22;62504;46.070;14.492;2022-12-24T08:52:53;9.20;99.90
64689;DHT22;62504;46.070;14.492;2022-12-24T08:55:18;9.20;99.90
64689;DHT22;62504;46.070;14.492;2022-12-24T08:57:44;9.20;99.90
64689;DHT22;62504;46.070;14.492;2022-12-24T09:00:11;9.30;99.90
64689;DHT22;62504;46.070;14.492;2022-12-24T09:02:37;9.20;99.90
64689;DHT22;62504;46.070;14.492;2022-12-24T09:05:03;9.20;99.90
64689;DHT22;62504;46.070;14.492;2022-12-24T09:07:29;9.20;99.90
64689;DHT22;62504;46.070;14.492;2022-12-24T09:09:54;9.20;99.90
64689;DHT22;62504;46.070;14.492;2022-12-24T09:12:20;9.20;99.90
64689;DHT22;62504;46.070;14.492;2022-12-24T09:14:46;9.30;99.90
64689;DHT22;62504;46.070;14.492;2022-12-24T09:17:11;9.30;99.90
64689;DHT22;62504;46.070;14.492;2022-12-24T09:19:37;9.30;99.90
64689;DHT22;62504;46.070;14.492;2022-12-24T09:22:03;9.40;99.90
64689;DHT22;62504;46.070;14.492;2022-12-24T09:24:28;9.40;99.90
64689;DHT22;62504;46.070;14.492;2022-12-24T09:26:54;9.40;99.90
64689;DHT22;62504;46.070;14.492;2022-12-24T09:29:19;9.40;99.90
64689;DHT22;62504;46.070;14.492;2022-12-24T09:31:45;9.50;99.90
64689;DHT22;62504;46.070;14.492;2022-12-24T09:34:11;9.50;99.90
64689;DHT22;62504;46.070;14.492;2022-12-24T09:36:36;9.60;99.90
64689;DHT22;62504;46.070;14.492;2022-12-24T09:39:02;9.60;99.90
64689;DHT22;62504;46.070;14.492;2022-12-24T09:47:02;9.70;99.90
64689;DHT22;62504;46.070;14.492;2022-12-24T09:49:49;9.70;99.90
64689;DHT22;62504;46.070;14.492;2022-12-24T09:52:26;9.60;99.90
64689;DHT22;62504;46.070;14.492;2022-12-24T09:57:37;9.60;99.90
64689;DHT22;62504;46.070;14.492;2022-12-24T10:00:04;9.70;99.90
64689;DHT22;62504;46.070;14.492;2022-12-24T10:02:31;9.80;99.90
64689;DHT22;62504;46.070;14.492;2022-12-24T10:04:57;9.80;99.90
64689;DHT22;62504;46.070;14.492;2022-12-24T10:07:55;9.80;99.90
64689;DHT22;62504;46.070;14.492;2022-12-24T10:10:36;9.80;99.90
64689;DHT22;62504;46.070;14.492;2022-12-24T10:18:37;9.70;99.90
64689;DHT22;62504;46.070;14.492;2022-12-24T10:24:17;9.80;99.90
64689;DHT22;62504;46.070;14.492;2022-12-24T10:27:00;9.90;99.90
64689;DHT22;62504;46.070;14.492;2022-12-24T10:29:29;10.00;99.90
64689;DHT22;62504;46.070;14.492;2022-12-24T10:34:57;10.40;99.90
64689;DHT22;62504;46.070;14.492;2022-12-24T10:37:25;10.30;99.90
64689;DHT22;62504;46.070;14.492;2022-12-24T10:39:53;10.30;99.90
64689;DHT22;62504;46.070;14.492;2022-12-24T10:42:20;10.30;99.90
64689;DHT22;62504;46.070;14.492;2022-12-24T10:44:53;10.40;99.90
64689;DHT22;62504;46.070;14.492;2022-12-24T10:47:20;10.40;99.90
64689;DHT22;62504;46.070;14.492;2022-12-24T10:49:53;10.30;99.90
64689;DHT22;62504;46.070;14.492;2022-12-24T10:52:24;10.40;99.90
64689;DHT22;62504;46.070;14.492;2022-12-24T10:57:33;10.40;99.90
64689;DHT22;62504;46.070;14.492;2022-12-24T10:59:59;10.30;99.90
64689;DHT22;62504;46.070;14.492;2022-12-24T11:02:28;10.30;99.90
64689;DHT22;62504;46.070;14.492;2022-12-24T11:04:55;10.30;99.90
64689;DHT22;62504;46.070;14.492;2022-12-24T11:07:22;10.40;99.90
64689;DHT22;62504;46.070;14.492;2022-12-24T11:10:05;10.40;99.90
64689;DHT22;62504;46.070;14.492;2022-12-24T11:12:34;10.40;99.90
64689;DHT22;62504;46.070;14.492;2022-12-24T11:17:28;10.40;99.90
64689;DHT22;62504;46.070;14.492;2022-12-24T11:19:54;10.40;99.90
64689;DHT22;62504;46.070;14.492;2022-12-24T11:22:23;10.40;99.90
64689;DHT22;62504;46.070;14.492;2022-12-24T11:25:03;10.40;99.90
64689;DHT22;62504;46.070;14.492;2022-12-24T11:27:39;10.40;99.90
64689;DHT22;62504;46.070;14.492;2022-12-24T11:32:47;10.50;99.90
64689;DHT22;62504;46.070;14.492;2022-12-24T11:35:22;10.40;99.90
64689;DHT22;62504;46.070;14.492;2022-12-24T11:38:11;10.40;99.90
64689;DHT22;62504;46.070;14.492;2022-12-24T11:40:57;10.30;99.90
64689;DHT22;62504;46.070;14.492;2022-12-24T11:43:23;10.30;99.90
64689;DHT22;62504;46.070;14.492;2022-12-24T11:45:52;10.40;99.90
64689;DHT22;62504;46.070;14.492;2022-12-24T11:48:32;10.30;99.90
64689;DHT22;62504;46.070;14.492;2022-12-24T11:51:02;10.20;99.90
64689;DHT22;62504;46.070;14.492;2022-12-24T11:53:44;10.40;99.90
64689;DHT22;62504;46.070;14.492;2022-12-24T11:59:00;10.40;99.90
64689;DHT22;62504;46.070;14.492;2022-12-24T12:01:37;10.40;99.90
64689;DHT22;62504;46.070;14.492;2022-12-24T12:04:20;10.50;99.90
64689;DHT22;62504;46.070;14.492;2022-12-24T12:09:27;10.70;99.90
64689;DHT22;62504;46.070;14.492;2022-12-24T12:12:07;10.80;99.90
64689;DHT22;62504;46.070;14.492;2022-12-24T12:22:56;10.70;99.90
64689;DHT22;62504;46.070;14.492;2022-12-24T12:25:49;10.70;99.90
64689;DHT22;62504;46.070;14.492;2022-12-24T12:28:21;10.70;99.90
64689;DHT22;62504;46.070;14.492;2022-12-24T12:33:44;10.90;99.90
64689;DHT22;62504;46.070;14.492;2022-12-24T12:36:13;10.90;99.90
64689;DHT22;62504;46.070;14.492;2022-12-24T12:38:40;10.90;99.90
64689;DHT22;62504;46.070;14.492;2022-12-24T12:41:34;11.00;99.90
64689;DHT22;62504;46.070;14.492;2022-12-24T12:44:48;11.10;99.90
64689;DHT22;62504;46.070;14.492;2022-12-24T12:50:16;11.20;99.90
64689;DHT22;62504;46.070;14.492;2022-12-24T12:53:03;11.10;99.90
64689;DHT22;62504;46.070;14.492;2022-12-24T12:58:26;11.20;99.90
64689;DHT22;62504;46.070;14.492;2022-12-24T13:01:00;11.20;99.90
64689;DHT22;62504;46.070;14.492;2022-12-24T13:09:26;11.20;99.90
64689;DHT22;62504;46.070;14.492;2022-12-24T13:20:30;11.10;99.90
64689;DHT22;62504;46.070;14.492;2022-12-24T13:22:59;11.20;99.90
64689;DHT22;62504;46.070;14.492;2022-12-24T13:25:46;11.20;99.90
64689;DHT22;62504;46.070;14.492;2022-12-24T13:36:04;11.20;99.90
64689;DHT22;62504;46.070;14.492;2022-12-24T13:38:52;11.20;99.90
64689;DHT22;62504;46.070;14.492;2022-12-24T13:49:44;11.20;99.90
64689;DHT22;62504;46.070;14.492;2022-12-24T13:54:58;11.10;99.90
64689;DHT22;62504;46.070;14.492;2022-12-24T13:57:27;11.20;99.90
64689;DHT22;62504;46.070;14.492;2022-12-24T14:00:43;11.20;99.90
64689;DHT22;62504;46.070;14.492;2022-12-24T14:03:04;11.10;99.90
64689;DHT22;62504;46.070;14.492;2022-12-24T14:05:38;11.10;99.90
64689;DHT22;62504;46.070;14.492;2022-12-24T14:08:07;11.10;99.90
64689;DHT22;62504;46.070;14.492;2022-12-24T14:10:42;11.10;99.90
64689;DHT22;62504;46.070;14.492;2022-12-24T14:18:38;11.10;99.90
64689;DHT22;62504;46.070;14.492;2022-12-24T14:21:06;11.10;99.90
64689;DHT22;62504;46.070;14.492;2022-12-24T14:24:09;11.10;99.90
64689;DHT22;62504;46.070;14.492;2022-12-24T14:26:44;11.10;99.90
64689;DHT22;62504;46.070;14.492;2022-12-24T14:29:50;11.20;99.90
64689;DHT22;62504;46.070;14.492;2022-12-24T14:32:17;11.10;99.90
64689;DHT22;62504;46.070;14.492;2022-12-24T14:34:43;11.10;99.90
64689;DHT22;62504;46.070;14.492;2022-12-24T14:37:11;11.10;99.90
64689;DHT22;62504;46.070;14.492;2022-12-24T14:39:41;11.10;99.90
64689;DHT22;62504;46.070;14.492;2022-12-24T14:42:33;11.10;99.90
64689;DHT22;62504;46.070;14.492;2022-12-24T14:45:23;11.20;99.90
64689;DHT22;62504;46.070;14.492;2022-12-24T14:48:02;11.20;99.90
64689;DHT22;62504;46.070;14.492;2022-12-24T14:56:16;11.10;99.90
64689;DHT22;62504;46.070;14.492;2022-12-24T14:58:44;11.00;99.90
64689;DHT22;62504;46.070;14.492;2022-12-24T15:01:20;11.00;99.90
64689;DHT22;62504;46.070;14.492;2022-12-24T15:06:28;10.90;99.90
64689;DHT22;62504;46.070;14.492;2022-12-24T15:08:56;10.80;99.90
64689;DHT22;62504;46.070;14.492;2022-12-24T15:11:22;10.90;99.90
64689;DHT22;62504;46.070;14.492;2022-12-24T15:13:51;10.90;99.90
64689;DHT22;62504;46.070;14.492;2022-12-24T15:16:22;10.90;99.90
64689;DHT22;62504;46.070;14.492;2022-12-24T15:18:52;10.80;99.90
64689;DHT22;62504;46.070;14.492;2022-12-24T15:21:36;10.90;99.90
64689;DHT22;62504;46.070;14.492;2022-12-24T15:24:32;10.80;99.90
64689;DHT22;62504;46.070;14.492;2022-12-24T15:26:59;10.80;99.90
64689;DHT22;62504;46.070;14.492;2022-12-24T15:29:29;10.70;99.90
64689;DHT22;62504;46.070;14.492;2022-12-24T15:32:04;10.80;99.90
64689;DHT22;62504;46.070;14.492;2022-12-24T15:34:38;10.70;99.90
64689;DHT22;62504;46.070;14.492;2022-12-24T15:39:36;10.70;99.90
64689;DHT22;62504;46.070;14.492;2022-12-24T15:42:05;10.60;99.90
64689;DHT22;62504;46.070;14.492;2022-12-24T15:45:13;10.40;99.90
64689;DHT22;62504;46.070;14.492;2022-12-24T15:47:46;10.40;99.90
64689;DHT22;62504;46.070;14.492;2022-12-24T15:52:47;10.40;99.90
64689;DHT22;62504;46.070;14.492;2022-12-24T15:55:25;10.40;99.90
64689;DHT22;62504;46.070;14.492;2022-12-24T15:57:51;10.40;99.90
64689;DHT22;62504;46.070;14.492;2022-12-24T16:00:25;10.30;99.90
64689;DHT22;62504;46.070;14.492;2022-12-24T16:03:18;10.40;99.90
64689;DHT22;62504;46.070;14.492;2022-12-24T16:06:01;10.40;99.90
64689;DHT22;62504;46.070;14.492;2022-12-24T16:08:29;10.30;99.90
64689;DHT22;62504;46.070;14.492;2022-12-24T16:11:12;10.40;99.90
64689;DHT22;62504;46.070;14.492;2022-12-24T16:16:39;10.30;99.90
64689;DHT22;62504;46.070;14.492;2022-12-24T16:19:14;10.40;99.90
64689;DHT22;62504;46.070;14.492;2022-12-24T16:21:41;10.40;99.90
64689;DHT22;62504;46.070;14.492;2022-12-24T16:24:23;10.40;99.90
64689;DHT22;62504;46.070;14.492;2022-12-24T16:26:49;10.40;99.90
64689;DHT22;62504;46.070;14.492;2022-12-24T16:29:15;10.40;99.90
64689;DHT22;62504;46.070;14.492;2022-12-24T16:31:52;10.40;99.90
64689;DHT22;62504;46.070;14.492;2022-12-24T16:34:22;10.40;99.90
64689;DHT22;62504;46.070;14.492;2022-12-24T16:36:48;10.20;99.90
64689;DHT22;62504;46.070;14.492;2022-12-24T16:39:20;10.30;99.90
64689;DHT22;62504;46.070;14.492;2022-12-24T16:41:53;10.30;99.90
64689;DHT22;62504;46.070;14.492;2022-12-24T16:44:38;10.20;99.90
64689;DHT22;62504;46.070;14.492;2022-12-24T16:47:10;10.20;99.90
64689;DHT22;62504;46.070;14.492;2022-12-24T16:49:37;10.30;99.90
64689;DHT22;62504;46.070;14.492;2022-12-24T16:52:09;10.30;99.90
64689;DHT22;62504;46.070;14.492;2022-12-24T16:54:38;10.30;99.90
64689;DHT22;62504;46.070;14.492;2022-12-24T16:57:04;10.20;99.90
64689;DHT22;62504;46.070;14.492;2022-12-24T16:59:29;10.20;99.90
64689;DHT22;62504;46.070;14.492;2022-12-24T17:01:56;10.30;99.90
64689;DHT22;62504;46.070;14.492;2022-12-24T17:04:22;10.30;99.90
64689;DHT22;62504;46.070;14.492;2022-12-24T17:06:48;10.20;99.90
64689;DHT22;62504;46.070;14.492;2022-12-24T17:09:14;10.20;99.90
64689;DHT22;62504;46.070;14.492;2022-12-24T17:11:40;10.20;99.90
64689;DHT22;62504;46.070;14.492;2022-12-24T17:14:06;10.10;99.90
64689;DHT22;62504;46.070;14.492;2022-12-24T17:16:31;10.10;99.90
64689;DHT22;62504;46.070;14.492;2022-12-24T17:18:57;10.10;99.90
64689;DHT22;62504;46.070;14.492;2022-12-24T17:21:22;10.10;99.90
64689;DHT22;62504;46.070;14.492;2022-12-24T17:23:49;10.10;99.90
64689;DHT22;62504;46.070;14.492;2022-12-24T17:26:14;10.10;99.90
64689;DHT22;62504;46.070;14.492;2022-12-24T17:28:41;10.10;99.90
64689;DHT22;62504;46.070;14.492;2022-12-24T17:31:12;10.00;99.90
64689;DHT22;62504;46.070;14.492;2022-12-24T17:33:38;10.00;99.90
64689;DHT22;62504;46.070;14.492;2022-12-24T17:36:04;10.00;99.90
64689;DHT22;62504;46.070;14.492;2022-12-24T17:38:30;9.90;99.90
64689;DHT22;62504;46.070;14.492;2022-12-24T17:41:03;9.90;99.90
64689;DHT22;62504;46.070;14.492;2022-12-24T17:43:29;9.90;99.90